Time;durP1;ratioP1;P1;durP2;ratioP2;P2;SDS_P1;SDS_P2;PMS_P1;PMS_P2;Temp;Humidity;BMP_temperature;BMP_pressure;BME280_temperature;BME280_humidity;BME280_pressure;Samples;Min_cycle;Max_cycle;Signal;HPM_P1;HPM_P2
2021/04/01 00:01:07;;;;;;;5.57;4.30;;;15.00;94.40;;;;;;5112616;28;20233;-83
2021/04/01 00:03:33;;;;;;;6.63;4.33;;;15.00;94.40;;;;;;5112952;28;20190;-82
2021/04/01 00:05:59;;;;;;;6.00;4.77;;;15.00;94.40;;;;;;5112483;28;20253;-84
2021/04/01 00:08:26;;;;;;;5.27;4.40;;;15.00;93.80;;;;;;5112832;28;20210;-84
2021/04/01 00:10:52;;;;;;;4.90;4.40;;;15.00;93.40;;;;;;5112506;28;20271;-83
2021/04/01 00:13:19;;;;;;;6.77;5.13;;;15.00;93.10;;;;;;5112452;28;20261;-83
2021/04/01 00:15:45;;;;;;;6.50;4.60;;;14.90;93.00;;;;;;5111931;28;20688;-83
2021/04/01 00:18:15;;;;;;;5.83;4.80;;;15.00;93.10;;;;;;5112517;28;20651;-83
2021/04/01 00:20:42;;;;;;;6.43;4.67;;;14.90;93.50;;;;;;5112201;28;20247;-83
2021/04/01 00:23:08;;;;;;;9.70;5.30;;;14.90;93.90;;;;;;5112242;28;20210;-81
2021/04/01 00:25:35;;;;;;;8.47;5.07;;;14.80;93.10;;;;;;5111449;28;20205;-80
2021/04/01 00:28:01;;;;;;;6.37;5.13;;;14.70;93.30;;;;;;5110992;28;20234;-81
2021/04/01 00:30:27;;;;;;;5.90;4.77;;;14.80;94.20;;;;;;5111545;28;20194;-80
2021/04/01 00:32:53;;;;;;;6.57;5.10;;;14.80;94.40;;;;;;5111031;28;20269;-80
2021/04/01 00:35:19;;;;;;;6.50;4.93;;;14.80;93.90;;;;;;5111157;28;20251;-81
2021/04/01 00:37:45;;;;;;;8.40;5.30;;;14.80;93.20;;;;;;5111210;28;20202;-83
2021/04/01 00:40:12;;;;;;;8.10;5.17;;;14.90;93.40;;;;;;5110856;28;20206;-81
2021/04/01 00:42:40;;;;;;;5.70;4.70;;;14.80;93.60;;;;;;5111878;28;20230;-83
2021/04/01 00:45:09;;;;;;;9.00;5.13;;;14.90;93.90;;;;;;5112021;28;20248;-83
2021/04/01 00:47:36;;;;;;;7.40;5.23;;;14.80;94.00;;;;;;5112283;28;20236;-83
2021/04/01 00:50:07;;;;;;;8.37;5.00;;;14.80;94.10;;;;;;5112026;28;20205;-84
2021/04/01 00:52:33;;;;;;;5.90;5.30;;;14.80;94.10;;;;;;5112218;28;20248;-84
2021/04/01 00:55:00;;;;;;;5.90;5.13;;;14.80;94.00;;;;;;5112542;28;20212;-84
2021/04/01 00:57:27;;;;;;;6.67;5.43;;;14.80;94.20;;;;;;5112478;28;20576;-84
2021/04/01 00:59:54;;;;;;;7.37;5.40;;;14.80;94.30;;;;;;5112253;28;20229;-84
2021/04/01 01:02:20;;;;;;;6.33;5.73;;;14.80;94.40;;;;;;5112325;28;20291;-85
2021/04/01 01:04:47;;;;;;;8.20;5.73;;;14.70;94.50;;;;;;5112079;28;20664;-84
2021/04/01 01:07:13;;;;;;;6.40;5.37;;;14.70;94.70;;;;;;5112423;28;20202;-84
2021/04/01 01:09:39;;;;;;;7.30;5.63;;;14.70;94.90;;;;;;5112429;28;20217;-84
2021/04/01 01:12:06;;;;;;;10.73;5.70;;;14.70;95.10;;;;;;5112557;28;20233;-85
2021/04/01 01:14:33;;;;;;;5.87;5.30;;;14.70;95.60;;;;;;5112249;28;20247;-82
2021/04/01 01:17:00;;;;;;;9.93;5.63;;;14.60;95.80;;;;;;5110985;28;20210;-83
2021/04/01 01:19:28;;;;;;;11.30;5.43;;;14.50;96.50;;;;;;5111309;28;20347;-83
2021/04/01 01:21:54;;;;;;;7.73;5.40;;;14.50;97.60;;;;;;5111041;28;20210;-83
2021/04/01 01:24:21;;;;;;;6.50;5.70;;;14.50;98.20;;;;;;5111304;28;20258;-83
2021/04/01 01:26:47;;;;;;;6.47;5.80;;;14.40;98.40;;;;;;5111234;28;20594;-83
2021/04/01 01:29:14;;;;;;;7.57;5.53;;;14.40;98.20;;;;;;5110639;28;20230;-83
2021/04/01 01:31:44;;;;;;;6.50;5.77;;;14.50;98.30;;;;;;5111142;28;20650;-83
2021/04/01 01:34:11;;;;;;;9.97;5.53;;;14.40;98.40;;;;;;5111162;28;20194;-83
2021/04/01 01:36:37;;;;;;;6.83;5.10;;;14.30;98.60;;;;;;5110916;28;20582;-83
2021/04/01 01:39:03;;;;;;;8.33;5.50;;;14.30;98.90;;;;;;5111012;28;20206;-83
2021/04/01 01:41:30;;;;;;;6.97;5.77;;;14.30;98.60;;;;;;5110547;28;20716;-83
2021/04/01 01:43:57;;;;;;;6.10;5.60;;;14.30;98.50;;;;;;5110472;28;20206;-83
2021/04/01 01:46:24;;;;;;;6.27;5.67;;;14.30;98.60;;;;;;5109692;28;20237;-81
2021/04/01 01:48:50;;;;;;;8.00;5.03;;;14.20;99.00;;;;;;5109743;28;20240;-81
2021/04/01 01:51:16;;;;;;;8.27;5.97;;;14.20;99.80;;;;;;5109135;28;20241;-84
2021/04/01 01:53:42;;;;;;;7.60;5.37;;;14.20;99.90;;;;;;5111899;28;20198;-85
2021/04/01 01:56:08;;;;;;;6.60;5.93;;;14.10;99.90;;;;;;5111602;28;20232;-87
2021/04/01 01:58:35;;;;;;;6.80;5.77;;;14.20;99.90;;;;;;5111603;28;20758;-86
2021/04/01 02:01:03;;;;;;;7.17;6.27;;;14.10;99.90;;;;;;5111921;28;20209;-87
2021/04/01 02:03:29;;;;;;;7.33;5.83;;;14.20;99.90;;;;;;5111903;28;20206;-86
2021/04/01 02:05:55;;;;;;;6.17;5.53;;;14.20;99.90;;;;;;5112044;28;20206;-85
2021/04/01 02:08:21;;;;;;;7.00;6.30;;;14.20;99.90;;;;;;5110834;28;20245;-82
2021/04/01 02:10:49;;;;;;;6.97;6.10;;;14.10;99.90;;;;;;5109513;28;20209;-82
2021/04/01 02:13:17;;;;;;;8.47;6.80;;;14.10;99.90;;;;;;5109166;28;20229;-83
2021/04/01 02:15:45;;;;;;;10.30;7.17;;;14.10;99.90;;;;;;5110349;28;20210;-87
2021/04/01 02:18:14;;;;;;;8.77;6.40;;;14.00;99.90;;;;;;5110945;28;20209;-88
2021/04/01 02:20:42;;;;;;;9.63;6.73;;;14.10;99.90;;;;;;5111743;28;20241;-91
2021/04/01 02:23:09;;;;;;;6.77;5.83;;;14.10;99.90;;;;;;5112255;28;20218;-90
2021/04/01 02:25:36;;;;;;;8.87;7.10;;;14.20;99.90;;;;;;5112079;28;20252;-91
2021/04/01 02:28:02;;;;;;;7.37;6.70;;;14.20;99.90;;;;;;5111727;28;20234;-92
2021/04/01 02:30:28;;;;;;;7.70;6.97;;;14.10;99.90;;;;;;5112162;28;20209;-91
2021/04/01 02:32:55;;;;;;;8.93;7.07;;;14.10;99.90;;;;;;5111712;28;20719;-91
2021/04/01 02:35:22;;;;;;;8.57;7.40;;;14.10;99.90;;;;;;5112213;28;20206;-91
2021/04/01 02:37:48;;;;;;;11.00;7.20;;;14.10;99.70;;;;;;5112141;28;20202;-91
2021/04/01 02:40:15;;;;;;;9.57;7.80;;;14.00;99.60;;;;;;5112022;28;20566;-89
2021/04/01 02:42:41;;;;;;;9.53;7.37;;;14.00;99.90;;;;;;5111852;28;20645;-91
2021/04/01 02:45:10;;;;;;;8.90;6.47;;;14.00;99.90;;;;;;5111923;28;20285;-90
2021/04/01 02:47:36;;;;;;;11.23;7.70;;;14.00;99.90;;;;;;5111882;28;20279;-84
2021/04/01 02:50:05;;;;;;;8.20;7.17;;;14.00;99.90;;;;;;5109669;28;20214;-82
2021/04/01 02:52:31;;;;;;;8.30;6.93;;;13.90;99.90;;;;;;5109769;28;20257;-82
2021/04/01 02:54:57;;;;;;;9.33;6.60;;;13.80;99.90;;;;;;5109395;28;21010;-83
2021/04/01 02:57:23;;;;;;;10.73;7.30;;;13.80;99.90;;;;;;5110146;28;20238;-82
2021/04/01 02:59:49;;;;;;;8.73;7.47;;;13.80;99.90;;;;;;5109628;28;20205;-82
2021/04/01 03:02:18;;;;;;;9.03;7.03;;;13.80;99.90;;;;;;5111815;28;20258;-83
2021/04/01 03:04:44;;;;;;;9.43;7.40;;;13.80;99.90;;;;;;5105778;28;20305;-87
2021/04/01 03:07:11;;;;;;;8.43;7.60;;;13.70;99.90;;;;;;5106440;28;20226;-82
2021/04/01 03:09:37;;;;;;;8.10;7.03;;;13.70;99.90;;;;;;5114756;28;20237;-87
2021/04/01 03:12:05;;;;;;;9.33;7.27;;;13.70;99.90;;;;;;5112325;27;20303;-84
2021/04/01 03:14:31;;;;;;;7.80;6.57;;;13.70;99.90;;;;;;5089270;28;20213;-82
2021/04/01 03:16:57;;;;;;;8.53;7.53;;;13.70;99.90;;;;;;5104490;28;20206;-82
2021/04/01 03:19:23;;;;;;;8.73;7.40;;;13.60;99.10;;;;;;5109177;28;20617;-83
2021/04/01 03:21:49;;;;;;;8.67;7.70;;;13.60;98.70;;;;;;5109875;28;20202;-85
2021/04/01 03:24:17;;;;;;;8.33;7.40;;;13.70;99.20;;;;;;5109696;28;20216;-84
2021/04/01 03:26:43;;;;;;;8.63;7.10;;;13.70;99.90;;;;;;5109813;28;20622;-82
2021/04/01 03:29:10;;;;;;;8.43;7.63;;;13.70;99.90;;;;;;5108003;28;20298;-75
2021/04/01 03:31:36;;;;;;;10.73;7.63;;;13.70;99.90;;;;;;5108512;28;20202;-74
2021/04/01 03:34:03;;;;;;;9.70;7.73;;;13.70;99.90;;;;;;5109119;28;20263;-85
2021/04/01 03:36:30;;;;;;;12.07;7.20;;;13.80;99.90;;;;;;5109609;28;20245;-84
2021/04/01 03:38:56;;;;;;;9.17;7.27;;;13.70;99.90;;;;;;5109068;28;20198;-84
2021/04/01 03:41:23;;;;;;;13.63;8.20;;;13.70;99.90;;;;;;5108046;28;20278;-83
2021/04/01 03:43:49;;;;;;;9.73;7.70;;;13.70;99.90;;;;;;5108485;28;20625;-83
2021/04/01 03:46:15;;;;;;;11.67;8.83;;;13.70;99.90;;;;;;5109216;28;20210;-85
2021/04/01 03:48:42;;;;;;;12.07;7.93;;;13.60;99.90;;;;;;5109612;28;20655;-85
2021/04/01 03:51:08;;;;;;;10.53;8.40;;;13.60;99.90;;;;;;5109129;28;20680;-85
2021/04/01 03:53:34;;;;;;;11.40;8.27;;;13.60;99.90;;;;;;5109528;28;20268;-84
2021/04/01 03:56:01;;;;;;;10.23;8.47;;;13.60;99.90;;;;;;5109292;28;20210;-84
2021/04/01 04:01:56;;;;;;;10.57;8.00;;;13.60;99.90;;;;;;5106109;28;20186;-81
2021/04/01 04:04:32;;;;;;;10.63;8.33;;;13.60;99.90;;;;;;5109038;27;20205;-83
2021/04/01 04:07:34;;;;;;;9.63;8.63;;;13.60;99.90;;;;;;5109827;28;20842;-82
2021/04/01 04:10:16;;;;;;;9.83;7.90;;;13.60;99.90;;;;;;5111599;28;20205;-84
2021/04/01 04:12:56;;;;;;;8.37;7.63;;;13.60;99.90;;;;;;5107089;28;20214;-84
2021/04/01 04:15:24;;;;;;;8.43;7.60;;;13.60;99.90;;;;;;5111234;28;20560;-82
2021/04/01 04:17:50;;;;;;;9.70;8.70;;;13.50;99.90;;;;;;5111186;28;20673;-83
2021/04/01 04:20:17;;;;;;;10.70;8.60;;;13.60;99.90;;;;;;5111145;28;20194;-82
2021/04/01 04:22:43;;;;;;;18.10;8.90;;;13.60;99.90;;;;;;5111361;28;20206;-83
2021/04/01 04:25:13;;;;;;;8.77;7.87;;;13.60;99.90;;;;;;5111092;28;20216;-83
2021/04/01 04:30:26;;;;;;;10.43;7.83;;;13.60;99.90;;;;;;5110720;28;20239;-82
2021/04/01 04:32:52;;;;;;;9.60;8.27;;;13.60;99.90;;;;;;5110459;28;20230;-82
2021/04/01 04:35:19;;;;;;;9.03;8.13;;;13.50;99.90;;;;;;5110891;28;20214;-82
2021/04/01 04:37:45;;;;;;;11.27;8.80;;;13.50;99.90;;;;;;5110677;28;20537;-82
2021/04/01 04:40:13;;;;;;;8.80;8.00;;;13.50;99.90;;;;;;5096587;28;20199;-82
2021/04/01 04:42:39;;;;;;;9.07;7.90;;;13.50;99.90;;;;;;5096233;28;20230;-82
2021/04/01 04:45:06;;;;;;;11.97;8.03;;;13.50;99.90;;;;;;5093116;28;20225;-82
2021/04/01 04:47:34;;;;;;;9.00;7.77;;;13.50;99.90;;;;;;5104616;28;20194;-83
2021/04/01 04:50:00;;;;;;;9.77;8.30;;;13.50;99.90;;;;;;5097190;28;20213;-82
2021/04/01 04:52:27;;;;;;;8.80;7.70;;;13.40;99.90;;;;;;5110853;28;20222;-83
2021/04/01 04:54:54;;;;;;;12.70;8.57;;;13.40;99.90;;;;;;5111150;28;20205;-83
2021/04/01 04:57:23;;;;;;;11.37;8.17;;;13.50;99.90;;;;;;5111631;28;20207;-83
2021/04/01 05:00:07;;;;;;;11.20;7.97;;;13.50;99.90;;;;;;5102590;28;20350;-82
2021/04/01 05:05:24;;;;;;;11.47;7.80;;;13.40;99.90;;;;;;5093553;28;20202;-84
2021/04/01 05:07:50;;;;;;;13.20;9.27;;;13.50;99.90;;;;;;5101366;28;20194;-83
2021/04/01 05:10:16;;;;;;;10.87;8.30;;;13.40;99.90;;;;;;5110379;28;20539;-83
2021/04/01 05:12:42;;;;;;;11.10;9.10;;;13.30;99.90;;;;;;5108331;28;20647;-84
2021/04/01 05:15:10;;;;;;;12.40;8.60;;;13.40;99.90;;;;;;5097052;28;20218;-84
2021/04/01 05:17:41;;;;;;;10.07;8.97;;;13.40;99.90;;;;;;5095663;28;20257;-84
2021/04/01 05:20:08;;;;;;;9.93;8.30;;;13.40;99.90;;;;;;5103755;28;20191;-84
2021/04/01 05:22:39;;;;;;;12.53;9.17;;;13.40;99.90;;;;;;5104255;28;20736;-83
2021/04/01 05:25:11;;;;;;;12.17;8.57;;;13.40;99.90;;;;;;5110788;28;20697;-85
2021/04/01 05:27:40;;;;;;;11.63;9.30;;;13.40;99.90;;;;;;5104560;28;20943;-83
2021/04/01 05:30:08;;;;;;;13.27;9.00;;;13.40;99.90;;;;;;5096478;28;20194;-82
2021/04/01 05:32:36;;;;;;;10.23;8.70;;;13.40;99.90;;;;;;5108987;28;20282;-82
2021/04/01 05:35:04;;;;;;;10.70;8.83;;;13.40;99.90;;;;;;5106053;28;20210;-81
2021/04/01 05:37:31;;;;;;;10.53;8.40;;;13.40;99.90;;;;;;5109642;28;20263;-83
2021/04/01 05:39:58;;;;;;;12.67;9.53;;;13.40;99.90;;;;;;5104343;28;20200;-83
2021/04/01 05:42:24;;;;;;;12.57;9.10;;;13.50;99.90;;;;;;5107190;28;20229;-83
2021/04/01 05:44:53;;;;;;;12.27;9.20;;;13.50;99.90;;;;;;5108574;28;20205;-82
2021/04/01 05:47:27;;;;;;;13.30;8.97;;;13.50;99.90;;;;;;5109685;28;20198;-83
2021/04/01 05:50:05;;;;;;;11.93;7.90;;;13.50;99.90;;;;;;5108952;28;20186;-83
2021/04/01 05:52:59;;;;;;;12.33;8.63;;;13.60;99.90;;;;;;5109158;28;20222;-82
2021/04/01 05:58:50;;;;;;;14.77;9.27;;;13.60;99.90;;;;;;5088334;28;20324;-82
2021/04/01 06:04:21;;;;;;;16.10;9.13;;;13.60;99.90;;;;;;5092943;28;20190;-83
2021/04/01 06:06:53;;;;;;;13.43;9.07;;;13.70;99.90;;;;;;5109020;28;20186;-81
2021/04/01 06:09:23;;;;;;;11.93;8.33;;;13.80;99.90;;;;;;5106310;28;20202;-82
2021/04/01 06:11:52;;;;;;;10.17;8.57;;;13.80;99.90;;;;;;5108910;28;20198;-84
2021/04/01 06:14:30;;;;;;;12.60;9.60;;;13.90;99.90;;;;;;5109224;28;20216;-83
2021/04/01 06:16:57;;;;;;;11.67;9.07;;;13.90;99.90;;;;;;5108914;28;20610;-83
2021/04/01 06:19:32;;;;;;;12.10;9.13;;;13.90;99.70;;;;;;5109320;28;20611;-83
2021/04/01 06:22:03;;;;;;;17.10;9.70;;;13.80;99.10;;;;;;5108996;28;20553;-82
2021/04/01 06:24:32;;;;;;;11.37;9.83;;;13.80;99.40;;;;;;5108651;28;20233;-82
2021/04/01 06:27:02;;;;;;;15.40;10.47;;;13.80;99.30;;;;;;5108763;28;20206;-82
2021/04/01 06:29:34;;;;;;;12.53;9.43;;;13.70;99.30;;;;;;5108708;28;20237;-82
2021/04/01 06:32:02;;;;;;;13.53;9.97;;;13.80;99.30;;;;;;5107993;28;20309;-82
2021/04/01 06:34:35;;;;;;;12.77;9.73;;;13.80;99.50;;;;;;5108555;28;20205;-83
2021/04/01 06:37:03;;;;;;;13.90;10.27;;;13.70;99.10;;;;;;5105960;28;20581;-82
2021/04/01 06:39:29;;;;;;;11.80;8.97;;;13.60;99.20;;;;;;5108391;28;20205;-82
2021/04/01 06:42:04;;;;;;;17.33;9.83;;;13.70;99.40;;;;;;5108859;28;20253;-83
2021/04/01 06:44:39;;;;;;;14.87;10.07;;;13.60;99.50;;;;;;5109023;28;20201;-82
2021/04/01 06:47:09;;;;;;;12.47;10.07;;;13.60;99.60;;;;;;5108717;28;20655;-83
2021/04/01 06:50:00;;;;;;;15.10;10.13;;;13.60;99.50;;;;;;5108773;28;20212;-83
2021/04/01 06:52:36;;;;;;;14.33;10.43;;;13.70;99.60;;;;;;5108702;28;20218;-82
2021/04/01 06:55:13;;;;;;;21.83;10.80;;;13.90;99.90;;;;;;5108300;28;20579;-83
2021/04/01 06:57:57;;;;;;;15.20;11.33;;;14.00;99.80;;;;;;5108575;28;20194;-83
2021/04/01 07:00:34;;;;;;;15.13;10.30;;;14.10;99.30;;;;;;5108732;28;20194;-83
2021/04/01 07:03:05;;;;;;;16.30;11.67;;;14.20;99.40;;;;;;5108554;28;20186;-83
2021/04/01 07:05:43;;;;;;;17.17;11.50;;;14.30;99.10;;;;;;5108742;28;20347;-82
2021/04/01 07:08:11;;;;;;;16.23;11.40;;;14.30;98.90;;;;;;5108496;28;20202;-83
2021/04/01 07:10:43;;;;;;;18.10;11.50;;;14.30;99.10;;;;;;5108592;28;20206;-82
2021/04/01 07:13:16;;;;;;;20.53;11.63;;;14.40;99.10;;;;;;5108190;28;20237;-83
2021/04/01 07:15:46;;;;;;;18.03;11.17;;;14.40;99.10;;;;;;5108471;28;20251;-82
2021/04/01 07:18:32;;;;;;;20.27;11.47;;;14.50;99.30;;;;;;5108426;28;20563;-82
2021/04/01 07:21:31;;;;;;;18.80;11.57;;;14.50;99.60;;;;;;5108379;28;20202;-83
2021/04/01 07:30:44;;;;;;;16.80;12.03;;;14.40;99.30;;;;;;5108543;28;20638;-82
2021/04/01 07:34:34;;;;;;;17.20;11.33;;;14.60;99.40;;;;;;5108279;28;20379;-80
2021/04/01 07:35:59;;;;;;;16.47;11.87;;;14.60;99.10;;;;;;5106531;28;20202;-82
2021/04/01 07:46:50;;;;;;;18.77;12.30;;;14.70;98.60;;;;;;5107801;28;20425;-82
2021/04/01 07:49:24;;;;;;;17.00;12.27;;;14.80;98.70;;;;;;5109259;28;20205;-82
2021/04/01 07:52:01;;;;;;;18.53;12.97;;;14.90;98.70;;;;;;5102789;28;20202;-83
2021/04/01 07:54:32;;;;;;;17.07;11.77;;;14.80;98.80;;;;;;5111482;28;20190;-83
2021/04/01 07:57:19;;;;;;;13.77;11.80;;;14.80;99.40;;;;;;5111580;28;20197;-82
2021/04/01 07:59:57;;;;;;;14.93;11.33;;;14.80;99.80;;;;;;5109088;28;20243;-83
2021/04/01 08:02:44;;;;;;;12.93;10.90;;;14.90;99.90;;;;;;5099458;28;20190;-83
2021/04/01 08:05:13;;;;;;;13.10;11.40;;;14.90;99.90;;;;;;5109047;28;20244;-84
2021/04/01 08:07:48;;;;;;;18.17;11.47;;;15.00;99.90;;;;;;5110961;28;20210;-83
2021/04/01 08:10:17;;;;;;;16.87;12.10;;;15.10;99.90;;;;;;5110465;28;20273;-83
2021/04/01 08:12:49;;;;;;;16.50;11.90;;;15.10;99.90;;;;;;5110279;28;20275;-83
2021/04/01 08:15:22;;;;;;;14.97;11.77;;;15.20;99.90;;;;;;5110747;28;20715;-83
2021/04/01 08:17:53;;;;;;;15.80;12.13;;;15.20;99.90;;;;;;5106017;28;20202;-83
2021/04/01 08:20:22;;;;;;;18.43;12.43;;;15.30;99.90;;;;;;5102841;28;20204;-83
2021/04/01 08:22:59;;;;;;;15.63;11.77;;;15.40;99.90;;;;;;5099764;28;20199;-83
2021/04/01 08:25:28;;;;;;;14.83;11.93;;;15.50;99.90;;;;;;5108304;28;20190;-83
2021/04/01 08:28:11;;;;;;;19.47;12.07;;;15.60;99.90;;;;;;5110497;28;20234;-83
2021/04/01 08:33:32;;;;;;;13.73;12.03;;;15.60;99.90;;;;;;5109793;28;20220;-78
2021/04/01 08:35:59;;;;;;;20.23;12.07;;;15.60;99.90;;;;;;5106370;28;20980;-78
2021/04/01 08:38:26;;;;;;;15.30;11.63;;;15.60;99.90;;;;;;5098638;28;20195;-77
2021/04/01 08:40:52;;;;;;;47.37;14.87;;;15.70;99.90;;;;;;5109017;28;20595;-76
2021/04/01 08:43:38;;;;;;;21.37;14.30;;;15.50;99.90;;;;;;5109291;28;20607;-76
2021/04/01 08:46:43;;;;;;;18.23;11.67;;;15.50;99.90;;;;;;5107288;28;20186;-76
2021/04/01 08:49:23;;;;;;;18.77;13.63;;;15.50;99.90;;;;;;5109357;28;20250;-76
2021/04/01 08:52:21;;;;;;;19.50;13.93;;;15.60;99.90;;;;;;5109613;28;20194;-77
2021/04/01 08:54:55;;;;;;;20.53;13.57;;;15.60;99.90;;;;;;5109252;28;20273;-76
2021/04/01 08:57:29;;;;;;;18.57;13.03;;;15.60;99.90;;;;;;5109887;28;20190;-82
2021/04/01 09:00:03;;;;;;;18.80;13.13;;;15.70;99.90;;;;;;5106930;28;20187;-83
2021/04/01 09:02:31;;;;;;;20.07;12.27;;;15.80;99.90;;;;;;5109749;28;20201;-82
2021/04/01 09:05:00;;;;;;;19.03;13.00;;;15.80;99.90;;;;;;5110024;28;20205;-82
2021/04/01 09:07:29;;;;;;;19.27;13.53;;;15.90;99.90;;;;;;5109920;28;20191;-82
2021/04/01 09:10:02;;;;;;;17.40;14.20;;;16.00;99.90;;;;;;5104241;28;20217;-82
2021/04/01 09:12:33;;;;;;;27.57;14.23;;;15.90;99.90;;;;;;5106121;28;20218;-82
2021/04/01 09:15:03;;;;;;;20.23;14.00;;;15.80;99.90;;;;;;5109641;28;20628;-83
2021/04/01 09:17:31;;;;;;;17.87;12.50;;;15.90;99.90;;;;;;5100945;28;20203;-82
2021/04/01 09:20:09;;;;;;;17.10;12.97;;;16.00;99.90;;;;;;5109170;28;20198;-82
2021/04/01 09:22:43;;;;;;;20.77;12.93;;;16.00;99.90;;;;;;5107090;28;20842;-82
2021/04/01 09:25:10;;;;;;;20.43;14.20;;;16.10;99.90;;;;;;5109340;28;20190;-82
2021/04/01 09:27:45;;;;;;;26.57;17.43;;;16.00;99.90;;;;;;5093934;28;20207;-81
2021/04/01 09:30:12;;;;;;;21.57;16.60;;;15.90;99.90;;;;;;5097946;28;20562;-83
2021/04/01 09:32:40;;;;;;;21.07;15.47;;;15.80;99.90;;;;;;5108748;28;20264;-82
2021/04/01 09:35:10;;;;;;;20.07;15.97;;;15.80;99.90;;;;;;5108918;28;20209;-80
2021/04/01 09:37:48;;;;;;;24.87;17.93;;;15.80;99.90;;;;;;5108249;28;20724;-79
2021/04/01 09:40:15;;;;;;;23.60;16.97;;;15.90;99.90;;;;;;5105981;28;20278;-81
2021/04/01 09:42:45;;;;;;;24.77;17.67;;;15.80;99.90;;;;;;5097006;28;21053;-82
2021/04/01 09:45:12;;;;;;;24.47;17.27;;;15.80;99.90;;;;;;5096885;28;20194;-82
2021/04/01 09:47:45;;;;;;;23.90;15.87;;;15.80;99.90;;;;;;5099264;28;20669;-82
2021/04/01 09:50:14;;;;;;;26.27;17.40;;;15.80;99.90;;;;;;5106525;28;20641;-82
2021/04/01 09:52:41;;;;;;;27.90;18.10;;;15.90;99.90;;;;;;5094071;28;20704;-82
2021/04/01 09:55:13;;;;;;;26.30;18.23;;;15.90;99.80;;;;;;5100801;28;20204;-82
2021/04/01 09:57:43;;;;;;;24.63;17.97;;;15.90;99.90;;;;;;5109078;28;20194;-82
2021/04/01 10:00:19;;;;;;;25.30;17.40;;;16.00;99.90;;;;;;5094921;28;20195;-82
2021/04/01 10:02:57;;;;;;;27.17;18.20;;;16.20;99.90;;;;;;5097514;28;20201;-82
2021/04/01 10:05:25;;;;;;;30.87;19.53;;;16.30;99.80;;;;;;5108668;28;20294;-82
2021/04/01 10:07:56;;;;;;;29.40;19.10;;;16.50;99.60;;;;;;5100103;28;20199;-82
2021/04/01 10:10:37;;;;;;;31.40;19.70;;;16.60;99.30;;;;;;5108603;28;20661;-83
2021/04/01 10:13:15;;;;;;;35.73;18.83;;;16.60;98.60;;;;;;5108137;28;20247;-84
2021/04/01 10:15:42;;;;;;;25.43;17.53;;;16.70;99.00;;;;;;5099901;28;20190;-83
2021/04/01 10:18:10;;;;;;;29.83;20.13;;;16.70;98.80;;;;;;5099619;28;20198;-82
2021/04/01 10:20:37;;;;;;;29.20;18.93;;;16.70;98.20;;;;;;5105036;28;20198;-83
2021/04/01 10:23:07;;;;;;;26.00;17.90;;;16.70;98.40;;;;;;5105082;28;20606;-83
2021/04/01 10:25:47;;;;;;;34.90;20.53;;;16.80;98.40;;;;;;5108108;28;20246;-82
2021/04/01 10:28:27;;;;;;;27.97;18.83;;;16.80;98.70;;;;;;5108410;28;20234;-82
2021/04/01 10:30:55;;;;;;;31.03;19.73;;;16.90;98.40;;;;;;5097471;28;20221;-82
2021/04/01 10:33:28;;;;;;;31.37;19.57;;;16.90;97.60;;;;;;5088680;28;20700;-82
2021/04/01 10:35:56;;;;;;;30.83;20.67;;;16.80;97.60;;;;;;5093878;28;20571;-83
2021/04/01 10:38:28;;;;;;;37.67;22.50;;;16.90;97.80;;;;;;5105640;28;20233;-82
2021/04/01 10:40:55;;;;;;;37.60;23.33;;;16.80;96.80;;;;;;5108039;28;20253;-82
2021/04/01 10:43:24;;;;;;;35.73;23.37;;;16.70;96.30;;;;;;5099631;28;20202;-82
2021/04/01 10:45:51;;;;;;;35.47;24.00;;;16.70;96.40;;;;;;5097461;28;20229;-83
2021/04/01 10:48:22;;;;;;;37.80;22.63;;;16.80;96.20;;;;;;5102259;28;20202;-83
2021/04/01 10:50:50;;;;;;;34.20;22.10;;;16.70;96.40;;;;;;5107789;28;20214;-82
2021/04/01 10:53:22;;;;;;;32.53;22.60;;;16.80;96.60;;;;;;5105148;28;20227;-83
2021/04/01 10:55:50;;;;;;;31.30;21.70;;;16.80;96.80;;;;;;5105556;28;20198;-81
2021/04/01 10:58:17;;;;;;;34.90;23.00;;;16.90;96.80;;;;;;5107831;28;20564;-82
2021/04/01 11:00:52;;;;;;;32.83;21.13;;;16.80;96.30;;;;;;5107910;28;20198;-82
2021/04/01 11:03:23;;;;;;;31.33;21.87;;;16.90;96.50;;;;;;5108148;28;20248;-82
2021/04/01 11:05:50;;;;;;;32.07;22.27;;;16.90;96.60;;;;;;5108381;28;20191;-82
2021/04/01 11:08:17;;;;;;;34.10;21.40;;;16.90;97.00;;;;;;5107968;28;20206;-82
2021/04/01 11:10:47;;;;;;;31.63;21.70;;;16.90;97.90;;;;;;5107684;28;20639;-82
2021/04/01 11:13:14;;;;;;;30.83;20.43;;;17.00;98.20;;;;;;5107365;28;20236;-81
2021/04/01 11:15:42;;;;;;;33.90;21.73;;;17.10;97.50;;;;;;5107931;28;20205;-81
2021/04/01 11:18:17;;;;;;;33.83;21.47;;;17.10;96.50;;;;;;5107514;28;20209;-82
2021/04/01 11:20:45;;;;;;;36.57;23.27;;;17.10;96.10;;;;;;5107664;28;20190;-82
2021/04/01 11:23:13;;;;;;;34.03;22.33;;;17.10;95.90;;;;;;5109219;28;20672;-82
2021/04/01 11:25:45;;;;;;;33.33;23.23;;;17.10;96.30;;;;;;5111818;28;20210;-81
2021/04/01 11:28:13;;;;;;;36.47;24.00;;;17.00;96.60;;;;;;5111742;28;20237;-81
2021/04/01 11:30:42;;;;;;;28.83;21.60;;;17.00;97.40;;;;;;5111501;28;20206;-82
2021/04/01 11:33:10;;;;;;;32.50;21.30;;;16.90;97.90;;;;;;5111196;28;20226;-81
2021/04/01 11:35:39;;;;;;;35.17;22.53;;;16.90;97.90;;;;;;5111529;28;20198;-81
2021/04/01 11:38:09;;;;;;;33.83;21.70;;;16.80;97.70;;;;;;5110998;28;20194;-81
2021/04/01 11:40:36;;;;;;;31.53;20.87;;;16.70;96.40;;;;;;5111644;28;20646;-82
2021/04/01 11:43:03;;;;;;;30.30;20.87;;;16.70;96.90;;;;;;5111147;28;20206;-81
2021/04/01 11:45:33;;;;;;;33.10;21.77;;;16.70;97.50;;;;;;5111662;28;20206;-82
2021/04/01 11:48:02;;;;;;;37.60;22.83;;;16.70;97.50;;;;;;5100676;28;20290;-82
2021/04/01 11:50:29;;;;;;;34.97;22.30;;;16.60;96.40;;;;;;5105226;28;20259;-82
2021/04/01 11:52:57;;;;;;;36.37;21.90;;;16.60;97.10;;;;;;5102784;28;20995;-82
2021/04/01 11:55:24;;;;;;;32.10;20.43;;;16.60;96.50;;;;;;5103995;28;20725;-81
2021/04/01 11:57:50;;;;;;;36.37;22.40;;;16.50;96.10;;;;;;5111078;28;20203;-82
2021/04/01 12:00:20;;;;;;;33.07;21.73;;;16.60;96.30;;;;;;5110114;28;20197;-81
2021/04/01 12:02:53;;;;;;;34.67;22.33;;;16.60;96.30;;;;;;5110427;28;20249;-81
2021/04/01 12:05:21;;;;;;;33.97;22.63;;;16.60;95.60;;;;;;5098098;28;20190;-82
2021/04/01 12:07:47;;;;;;;34.80;22.20;;;16.60;95.30;;;;;;5101911;28;20206;-81
2021/04/01 12:10:14;;;;;;;37.77;22.13;;;16.70;95.80;;;;;;5098187;28;20271;-79
2021/04/01 12:12:40;;;;;;;31.00;20.40;;;16.70;95.70;;;;;;5090115;28;20747;-78
2021/04/01 12:15:08;;;;;;;32.60;20.43;;;16.70;95.90;;;;;;5090360;28;20280;-79
2021/04/01 12:17:36;;;;;;;40.60;22.70;;;16.60;95.40;;;;;;5090925;28;20234;-81
2021/04/01 12:20:07;;;;;;;37.73;21.43;;;16.70;95.40;;;;;;5090842;28;20573;-79
2021/04/01 12:22:37;;;;;;;34.67;21.13;;;16.70;95.00;;;;;;5091279;28;20601;-80
2021/04/01 12:25:05;;;;;;;33.13;21.23;;;16.70;95.10;;;;;;5090703;28;20736;-80
2021/04/01 12:27:32;;;;;;;37.60;21.80;;;16.90;94.80;;;;;;5109009;28;20205;-82
2021/04/01 12:30:00;;;;;;;35.33;21.07;;;17.10;94.70;;;;;;5113254;28;20233;-81
2021/04/01 12:32:31;;;;;;;33.87;20.93;;;17.30;94.20;;;;;;5111855;28;20225;-79
2021/04/01 12:35:13;;;;;;;33.53;21.57;;;17.40;94.00;;;;;;5109959;28;20219;-79
2021/04/01 12:37:42;;;;;;;36.70;23.13;;;17.50;94.30;;;;;;5110793;28;20227;-78
2021/04/01 12:40:14;;;;;;;37.17;24.17;;;17.60;94.70;;;;;;5110800;28;20203;-81
2021/04/01 12:42:40;;;;;;;36.13;23.97;;;18.00;94.20;;;;;;5111094;28;20205;-80
2021/04/01 12:45:26;;;;;;;40.00;24.67;;;18.30;94.70;;;;;;5109130;28;20199;-75
2021/04/01 12:48:06;;;;;;;33.67;23.37;;;18.50;94.90;;;;;;5107147;28;20248;-72
2021/04/01 12:50:34;;;;;;;38.50;25.93;;;18.60;94.70;;;;;;5107610;28;20186;-81
2021/04/01 12:53:01;;;;;;;39.77;24.90;;;18.60;94.10;;;;;;5109177;27;20229;-81
2021/04/01 12:55:36;;;;;;;41.50;26.50;;;18.50;94.30;;;;;;5110623;28;20198;-80
2021/04/01 12:58:06;;;;;;;41.70;25.10;;;18.40;93.70;;;;;;5110138;28;20725;-79
2021/04/01 13:00:41;;;;;;;59.13;26.37;;;18.20;93.80;;;;;;5110885;27;20596;-81
2021/04/01 13:03:07;;;;;;;43.10;25.27;;;18.20;94.10;;;;;;5109919;28;20190;-80
2021/04/01 13:05:36;;;;;;;41.10;25.27;;;18.10;94.30;;;;;;5109435;28;20847;-79
2021/04/01 13:08:20;;;;;;;41.27;25.53;;;18.10;93.90;;;;;;5110371;28;20210;-80
2021/04/01 13:10:47;;;;;;;42.53;26.33;;;18.10;93.90;;;;;;5110890;27;20210;-80
2021/04/01 13:13:13;;;;;;;44.10;26.63;;;18.10;93.70;;;;;;5110318;28;20230;-81
2021/04/01 13:15:40;;;;;;;42.23;27.47;;;18.10;93.50;;;;;;5110757;28;20198;-80
2021/04/01 13:18:07;;;;;;;42.23;27.83;;;18.10;93.20;;;;;;5110549;28;20209;-81
2021/04/01 13:20:35;;;;;;;40.60;26.97;;;17.80;93.10;;;;;;5110462;28;20210;-81
2021/04/01 13:23:13;;;;;;;42.70;27.57;;;17.90;93.90;;;;;;5110090;28;20210;-81